• Join FlightAware (Why Join?)
  • Login
  • US Flag GB Flag 
22:07 EDT


 

Airport Tracker/Info


-or-


 

Live Flight TrackerFlight Track Log ✈ PDT4155 ✈ 09-Oct-2013 ✈ KBGM - KPHL

Flight Track Log - Related Links

Times and Time Zones

All times are in EDT time to prevent confusion due to time zone crossing. See the PDT4155 flight status page for this flight to view local times or setup timezone preferences in your user account.

Time Position Orientation Groundspeed Altitude Reporting Facility
EDT Latitude Longitude Course Direction KTS MPH feet Rate Location/Type
07:24 42.0348 -75.9228 180° South  Level Estimated
07:25 41.9753 -75.9250 182° South  Level FlightAware Approximate
07:26 41.9158 -75.9272 182° South  Level FlightAware Approximate
07:27 41.8581 -75.9072 154° Southeast  Level Estimated
07:28 41.8004 -75.8873 160° South  Level Estimated
07:29 41.7428 -75.8674 159° South  Level Estimated
07:30 41.6845 -75.8512 168° South  Level FlightAware Approximate
07:31 41.6261 -75.8350 168° South  Level FlightAware Approximate
07:32 41.5685 -75.8149 153° Southeast  Level Estimated
07:33 41.5109 -75.7949 161° South  Level Estimated
07:34 41.4546 -75.7691 161° South  Level FlightAware Approximate
07:35 41.3982 -75.7433 161° South  Level FlightAware Approximate
07:36 41.3405 -75.7239 162° South  Level Estimated
07:37 41.2842 -75.6978 161° South  Level FlightAware Approximate
07:38 41.2280 -75.6718 161° South  Level FlightAware Approximate
07:39 41.1717 -75.6458 161° South  Level FlightAware Approximate
07:40 41.1155 -75.6198 161° South  Level FlightAware Approximate
07:41 41.0575 -75.6018 163° South  Level Estimated
07:42 41.0011 -75.5766 161° South  Level FlightAware Approximate
07:43 40.9447 -75.5514 161° South  Level FlightAware Approximate
07:44 40.8882 -75.5262 161° South  Level FlightAware Approximate
07:45 40.8318 -75.5011 161° South  Level FlightAware Approximate
07:46 40.7735 -75.4850 190° South  Level Estimated
07:47 40.7140 -75.4883 182° South  Level FlightAware Approximate
07:48 40.6545 -75.4916 182° South  Level FlightAware Approximate
07:49 40.5851 -75.4691 187° South  Level Estimated
07:49 40.6167 -75.4833 143° Southeast 237 273 6,600  Level Philadelphia TRACON
07:50 40.5150 -75.4872 191° South  Level FlightAware Approximate
07:51 40.4464 -75.4606 190° South  Level Estimated
07:51 40.5167 -75.5000 187° South 222 255 5,200  Level Philadelphia TRACON
07:51 40.4667 -75.5000 180° South 221 254 5,000 -120 Descending Philadelphia TRACON
07:52 40.3789 -75.4914 199° South  Level FlightAware Approximate
07:52 40.3833 -75.4833 171° South 220 253 5,000  Level Philadelphia TRACON
07:53 40.3121 -75.4582 143° Southeast  Level Estimated
07:53 40.3333 -75.4833 180° South 221 254 5,000  Level Philadelphia TRACON
07:54 40.2453 -75.4249 143° Southeast  Level Estimated
07:54 40.2667 -75.4667 169° South 223 257 5,000  Level Philadelphia TRACON
07:55 40.2167 -75.4500 166° South 225 259 4,800 -420 Descending Philadelphia TRACON
07:56 40.1500 -75.4333 169° South 236 272 4,200 -420 Descending Philadelphia TRACON
07:57 40.1000 -75.4167 166° South 230 265 4,000 -120 Descending Philadelphia TRACON
07:58 40.0333 -75.4000 169° South 215 247 4,000  Level Philadelphia TRACON
07:59 39.9833 -75.3833 166° South 214 246 4,000  Level Philadelphia TRACON
08:00 39.9167 -75.3500 159° South 211 243 4,000 -360 Level Philadelphia TRACON
08:01 39.8667 -75.3333 166° South 219 252 3,300 -840 Descending Philadelphia TRACON
08:02 39.8167 -75.3000 153° Southeast 195 224 2,400 -720 Descending Philadelphia TRACON
08:03 39.8167 -75.2500 90° East 133 153 1,900 -660 Descending Philadelphia TRACON
08:05 39.8333 -75.2167 57° Northeast 94 108 1,000 -780 Descending Philadelphia TRACON
08:05 39.8500 -75.2167 360° North 99 114 500 -660 Descending Philadelphia TRACON